createdAt,value
2023-03-16T00:00:19.398Z,69.66
2023-03-16T00:02:46.544Z,70.01
2023-03-16T00:05:15.064Z,70.41
2023-03-16T00:07:43.334Z,69.46
2023-03-16T00:10:14.874Z,69.99
2023-03-16T00:12:43.878Z,69.49
2023-03-16T00:15:12.748Z,70.72
2023-03-16T00:17:40.078Z,69.85
2023-03-16T00:20:08.205Z,70.16
2023-03-16T00:22:35.434Z,70.39
2023-03-16T00:25:02.596Z,71.34
2023-03-16T00:27:30.542Z,71.25
2023-03-16T00:29:57.635Z,70.83
2023-03-16T00:32:29.210Z,70.97
2023-03-16T00:34:56.636Z,71.28
2023-03-16T00:37:26.796Z,71.14
2023-03-16T00:39:58.225Z,70.93
2023-03-16T00:42:29.765Z,69.85
2023-03-16T00:44:59.036Z,69.67
2023-03-16T00:47:30.472Z,70.17
2023-03-16T00:49:59.041Z,69.75
2023-03-16T00:52:27.541Z,70.90
2023-03-16T00:54:56.216Z,70.30
2023-03-16T00:57:25.740Z,70.06
2023-03-16T00:59:52.973Z,69.37
2023-03-16T01:02:23.456Z,69.68
2023-03-16T01:04:52.528Z,68.93
2023-03-16T01:07:21.747Z,69.96
2023-03-16T01:09:49.278Z,69.30
2023-03-16T01:12:19.236Z,69.55
2023-03-16T01:14:47.171Z,69.54
2023-03-16T01:17:17.377Z,69.50
2023-03-16T01:19:46.045Z,69.83
2023-03-16T01:22:13.658Z,70.09
2023-03-16T01:24:42.134Z,70.32
2023-03-16T01:27:09.667Z,70.79
2023-03-16T01:29:37.698Z,70.62
2023-03-16T01:32:05.745Z,71.07
2023-03-16T01:34:35.090Z,70.74
2023-03-16T01:37:02.883Z,71.33
2023-03-16T01:39:30.183Z,70.31
2023-03-16T01:41:57.299Z,70.35
2023-03-16T01:44:32.669Z,70.14
2023-03-16T01:46:59.751Z,70.14
2023-03-16T01:49:36.272Z,70.84
2023-03-16T01:52:22.521Z,70.68
2023-03-16T01:55:04.140Z,71.26
2023-03-16T01:57:42.541Z,71.83
2023-03-16T02:00:23.712Z,70.86
2023-03-16T02:02:59.930Z,70.58
2023-03-16T02:05:47.509Z,70.77
2023-03-16T02:08:14.775Z,69.97
2023-03-16T02:10:42.435Z,71.31
2023-03-16T02:13:09.498Z,72.45
2023-03-16T02:15:36.745Z,72.73
2023-03-16T02:18:05.673Z,72.35
2023-03-16T02:21:27.540Z,72.81
2023-03-16T02:23:54.846Z,72.43
2023-03-16T02:26:58.677Z,72.98
2023-03-16T02:30:01.202Z,72.12
2023-03-16T02:32:31.914Z,71.79
2023-03-16T02:35:01.161Z,71.12
2023-03-16T02:37:28.420Z,71.71
2023-03-16T02:39:55.736Z,71.48
2023-03-16T02:42:26.237Z,72.88
2023-03-16T02:44:58.799Z,72.85
2023-03-16T02:47:41.768Z,71.96
2023-03-16T02:50:12.385Z,72.11
2023-03-16T02:52:41.082Z,70.87
2023-03-16T02:55:09.001Z,71.81
2023-03-16T02:57:36.167Z,70.30
2023-03-16T03:00:11.109Z,73.76
2023-03-16T03:02:38.189Z,72.38
2023-03-16T03:05:07.034Z,72.39
2023-03-16T03:07:34.081Z,72.00
2023-03-16T03:10:05.865Z,72.33
2023-03-16T03:12:35.671Z,72.51
2023-03-16T03:15:02.751Z,70.97
2023-03-16T03:17:30.283Z,71.95
2023-03-16T03:20:13.834Z,74.85
2023-03-16T03:22:41.137Z,74.89
2023-03-16T03:25:14.331Z,73.32
2023-03-16T03:27:43.606Z,73.15
2023-03-16T03:30:19.675Z,72.56
2023-03-16T03:32:46.850Z,72.09
2023-03-16T03:35:16.280Z,72.32
2023-03-16T03:37:44.287Z,73.19
2023-03-16T03:40:15.350Z,72.89
2023-03-16T03:42:43.175Z,71.84
2023-03-16T03:45:12.946Z,71.92
2023-03-16T03:47:43.381Z,71.66
2023-03-16T03:50:13.889Z,71.65
2023-03-16T03:52:41.294Z,70.93
2023-03-16T03:55:09.677Z,71.73
2023-03-16T03:57:37.041Z,71.60
2023-03-16T04:00:09.522Z,70.62
2023-03-16T04:02:37.701Z,71.06
2023-03-16T04:05:07.312Z,73.51
2023-03-16T04:07:34.612Z,72.07
2023-03-16T04:10:01.689Z,71.77
2023-03-16T04:12:28.783Z,72.17
2023-03-16T04:14:55.975Z,71.49
2023-03-16T04:17:24.220Z,70.31
2023-03-16T04:19:51.958Z,71.13
2023-03-16T04:22:19.124Z,71.29
2023-03-16T04:24:47.451Z,71.08
2023-03-16T04:27:14.612Z,72.63
2023-03-16T04:29:41.677Z,71.70
2023-03-16T04:32:11.655Z,70.88
2023-03-16T04:34:41.659Z,70.15
2023-03-16T04:37:08.829Z,70.80
2023-03-16T04:39:35.948Z,70.65
2023-03-16T04:42:03.176Z,70.17
2023-03-16T04:44:30.363Z,70.40
2023-03-16T04:47:00.357Z,71.85
2023-03-16T04:49:27.426Z,70.34
2023-03-16T04:51:54.596Z,69.80
2023-03-16T04:54:21.676Z,69.63
2023-03-16T04:56:48.753Z,69.33
2023-03-16T04:59:15.820Z,71.10
2023-03-16T05:01:43.764Z,71.29
2023-03-16T05:04:18.954Z,70.78
2023-03-16T05:06:46.738Z,70.96
2023-03-16T05:09:14.114Z,71.63
2023-03-16T05:11:41.515Z,71.53
2023-03-16T05:14:08.580Z,71.82
2023-03-16T05:16:35.664Z,71.07
2023-03-16T05:19:02.832Z,70.65
2023-03-16T05:21:34.329Z,69.77
2023-03-16T05:24:01.501Z,68.11
2023-03-16T05:26:28.614Z,67.42
2023-03-16T05:28:58.238Z,70.80
2023-03-16T05:31:28.807Z,70.55
2023-03-16T05:33:57.435Z,71.36
2023-03-16T05:36:24.812Z,71.77
2023-03-16T05:38:52.929Z,71.67
2023-03-16T05:41:21.436Z,72.22
2023-03-16T05:43:48.708Z,70.81
2023-03-16T05:46:15.793Z,72.25
2023-03-16T05:48:42.860Z,71.69
2023-03-16T05:51:09.858Z,71.40
2023-03-16T05:53:36.971Z,69.47
2023-03-16T05:56:04.138Z,69.84
2023-03-16T05:58:33.655Z,68.93
2023-03-16T06:01:05.022Z,71.45
2023-03-16T06:03:32.119Z,72.60
2023-03-16T06:05:59.131Z,72.55
2023-03-16T06:08:26.163Z,74.32
2023-03-16T06:10:57.045Z,73.73
2023-03-16T06:13:24.100Z,74.29
2023-03-16T06:15:53.996Z,72.46
2023-03-16T06:18:22.456Z,73.61
2023-03-16T06:20:49.532Z,73.60
2023-03-16T06:23:16.638Z,73.46
2023-03-16T06:25:43.893Z,71.47
2023-03-16T06:28:11.081Z,70.18
2023-03-16T06:30:38.336Z,68.43
2023-03-16T06:33:05.456Z,68.25
2023-03-16T06:35:33.503Z,68.63
2023-03-16T06:38:00.949Z,67.32
2023-03-16T06:40:28.241Z,66.90
2023-03-16T06:42:55.434Z,66.60
2023-03-16T06:45:22.573Z,64.94
2023-03-16T06:47:52.479Z,64.06
2023-03-16T06:50:19.699Z,63.34
2023-03-16T06:52:48.565Z,63.27
2023-03-16T06:55:15.655Z,63.24
2023-03-16T06:57:42.732Z,62.28
2023-03-16T07:00:14.106Z,63.73
2023-03-16T07:02:43.479Z,63.56
2023-03-16T07:05:13.201Z,61.29
2023-03-16T07:07:44.297Z,60.79
2023-03-16T07:10:17.644Z,60.26
2023-03-16T07:12:45.695Z,60.41
2023-03-16T07:15:15.610Z,60.48
2023-03-16T07:17:43.386Z,59.96
2023-03-16T07:20:12.792Z,59.90
2023-03-16T07:22:41.848Z,59.69
2023-03-16T07:25:11.454Z,59.16
2023-03-16T07:27:38.935Z,59.64
2023-03-16T07:30:07.433Z,59.62
2023-03-16T07:32:34.672Z,60.62
2023-03-16T07:35:02.107Z,60.25
2023-03-16T07:37:29.205Z,60.07
2023-03-16T07:39:56.327Z,59.98
2023-03-16T07:42:23.433Z,59.27
2023-03-16T07:44:51.873Z,59.02
2023-03-16T07:47:20.047Z,58.68
2023-03-16T07:49:47.183Z,58.80
2023-03-16T07:52:14.267Z,58.48
2023-03-16T07:54:41.799Z,57.45
2023-03-16T07:57:09.377Z,57.19
2023-03-16T07:59:36.552Z,56.81
2023-03-16T08:02:04.048Z,56.67
2023-03-16T08:04:31.327Z,56.49
2023-03-16T08:07:00.273Z,57.09
2023-03-16T08:09:27.743Z,55.85
2023-03-16T08:11:54.945Z,55.90
2023-03-16T08:14:22.041Z,56.18
2023-03-16T08:16:50.229Z,56.57
2023-03-16T08:19:17.796Z,55.56
2023-03-16T08:22:00.739Z,55.29
2023-03-16T08:24:31.315Z,56.21
2023-03-16T08:27:00.960Z,56.24
2023-03-16T08:29:28.365Z,54.63
2023-03-16T08:31:56.444Z,54.27
2023-03-16T08:34:28.731Z,53.74
2023-03-16T08:36:55.892Z,54.03
2023-03-16T08:39:25.048Z,54.19
2023-03-16T08:41:52.141Z,54.49
2023-03-16T08:44:20.066Z,54.21
2023-03-16T08:46:47.241Z,51.98
2023-03-16T08:49:14.559Z,52.94
2023-03-16T08:51:44.758Z,53.63
2023-03-16T08:54:12.357Z,52.07
2023-03-16T08:56:43.233Z,50.92
2023-03-16T08:59:19.889Z,52.89
2023-03-16T09:01:56.188Z,49.30
2023-03-16T09:04:23.548Z,50.61
2023-03-16T09:07:09.865Z,49.67
2023-03-16T09:09:37.572Z,48.99
2023-03-16T09:12:06.070Z,46.79
2023-03-16T09:14:33.393Z,46.33
2023-03-16T09:17:00.448Z,48.39
2023-03-16T09:19:30.677Z,48.68
2023-03-16T09:22:01.942Z,47.35
2023-03-16T09:24:29.409Z,47.22
2023-03-16T09:26:56.473Z,47.47
2023-03-16T09:29:24.468Z,46.24
2023-03-16T09:31:51.672Z,45.03
2023-03-16T09:34:18.937Z,45.28
2023-03-16T09:36:46.277Z,44.75
2023-03-16T09:39:13.556Z,43.90
2023-03-16T09:41:52.488Z,45.44
2023-03-16T09:44:56.389Z,43.04
2023-03-16T09:47:30.769Z,44.75
2023-03-16T09:50:02.901Z,44.30
2023-03-16T09:52:57.534Z,43.30
2023-03-16T09:55:36.035Z,42.24
2023-03-16T09:58:16.243Z,40.86
2023-03-16T10:01:13.214Z,40.54
2023-03-16T10:04:23.370Z,38.84
2023-03-16T10:07:06.453Z,41.33
2023-03-16T10:09:41.462Z,39.40
2023-03-16T10:12:13.540Z,40.72
2023-03-16T10:15:04.701Z,39.98
2023-03-16T10:17:46.111Z,39.98
2023-03-16T10:20:23.440Z,42.02
2023-03-16T10:22:59.292Z,42.66
2023-03-16T10:25:50.185Z,36.62
2023-03-16T10:28:27.671Z,37.32
2023-03-16T10:30:59.071Z,39.25
2023-03-16T10:33:32.163Z,37.57
2023-03-16T10:36:41.921Z,37.16
2023-03-16T10:39:16.363Z,37.91
2023-03-16T10:41:54.473Z,36.77
2023-03-16T10:44:28.501Z,39.94
2023-03-16T10:47:08.467Z,38.02
2023-03-16T10:49:48.870Z,36.13
2023-03-16T10:52:43.006Z,37.48
2023-03-16T10:55:31.281Z,36.71
2023-03-16T10:57:59.735Z,36.11
2023-03-16T11:00:38.475Z,35.63
2023-03-16T11:03:41.266Z,35.98
2023-03-16T11:06:26.313Z,35.86
2023-03-16T11:08:54.878Z,37.49
2023-03-16T11:11:32.408Z,35.37
2023-03-16T11:14:04.763Z,34.93
2023-03-16T11:17:05.876Z,33.45
2023-03-16T11:20:00.256Z,33.80
2023-03-16T11:22:32.663Z,31.48
2023-03-16T11:25:09.380Z,36.26
2023-03-16T11:27:51.516Z,35.18
2023-03-16T11:30:59.151Z,36.06
2023-03-16T11:33:27.197Z,32.61
2023-03-16T11:36:35.187Z,34.57
2023-03-16T11:39:46.422Z,38.49
2023-03-16T11:42:39.466Z,32.92
2023-03-16T11:45:34.269Z,31.23
2023-03-16T11:48:53.749Z,34.85
2023-03-16T11:51:56.970Z,31.19
2023-03-16T11:54:44.210Z,32.04
2023-03-16T11:57:37.965Z,34.14
2023-03-16T12:01:07.358Z,31.15
2023-03-16T12:04:05.632Z,31.48
2023-03-16T12:07:09.135Z,31.46
2023-03-16T12:09:54.527Z,31.22
2023-03-16T12:13:20.007Z,31.20
2023-03-16T12:15:57.410Z,29.13
2023-03-16T12:18:54.745Z,29.70
2023-03-16T12:21:32.318Z,30.31
2023-03-16T12:24:09.098Z,30.29
2023-03-16T12:26:42.737Z,32.01
2023-03-16T12:29:42.769Z,28.29
2023-03-16T12:32:42.067Z,29.60
2023-03-16T12:35:33.908Z,29.96
2023-03-16T12:38:57.008Z,32.57
2023-03-16T12:41:38.092Z,33.41
2023-03-16T12:44:31.358Z,30.62
2023-03-16T12:47:28.657Z,30.58
2023-03-16T12:50:03.162Z,29.62
2023-03-16T12:52:46.515Z,27.65
2023-03-16T12:55:27.690Z,30.12
2023-03-16T12:58:06.501Z,27.47
2023-03-16T13:00:41.423Z,28.41
2023-03-16T13:03:23.036Z,29.51
2023-03-16T13:06:02.382Z,29.20
2023-03-16T13:08:43.927Z,30.29
2023-03-16T13:11:16.380Z,28.63
2023-03-16T13:14:15.168Z,32.29
2023-03-16T13:16:43.828Z,30.50
2023-03-16T13:19:30.396Z,27.63
2023-03-16T13:22:27.913Z,26.99
2023-03-16T13:25:22.441Z,27.61
2023-03-16T13:27:55.925Z,28.87
2023-03-16T13:30:32.671Z,28.08
2023-03-16T13:33:31.586Z,27.25
2023-03-16T13:36:00.313Z,28.74
2023-03-16T13:38:28.701Z,25.75
2023-03-16T13:41:09.381Z,26.27
2023-03-16T13:43:44.467Z,26.89
2023-03-16T13:46:22.414Z,33.20
2023-03-16T13:48:50.490Z,32.52
2023-03-16T13:51:22.675Z,30.68
2023-03-16T13:53:50.880Z,28.23
2023-03-16T13:56:26.738Z,26.91
2023-03-16T13:58:57.060Z,28.04
2023-03-16T14:01:32.127Z,30.68
2023-03-16T14:04:08.560Z,29.25
2023-03-16T14:06:36.741Z,27.84
2023-03-16T14:09:13.099Z,35.66
2023-03-16T14:11:42.140Z,31.65
2023-03-16T14:14:39.343Z,28.91
2023-03-16T14:17:22.119Z,28.67
2023-03-16T14:20:00.894Z,34.77
2023-03-16T14:22:38.795Z,29.83
2023-03-16T14:25:07.793Z,28.74
2023-03-16T14:27:40.980Z,29.00
2023-03-16T14:30:28.064Z,28.11
2023-03-16T14:33:05.871Z,30.44
2023-03-16T14:35:44.564Z,26.77
2023-03-16T14:38:37.592Z,28.28
2023-03-16T14:41:28.017Z,30.10
2023-03-16T14:44:00.071Z,28.99
2023-03-16T14:46:34.264Z,27.43
2023-03-16T14:49:22.093Z,26.40
2023-03-16T14:51:53.881Z,28.65
2023-03-16T14:54:22.395Z,24.55
2023-03-16T14:56:54.188Z,26.09
2023-03-16T14:59:22.001Z,28.82
2023-03-16T15:01:51.634Z,27.40
2023-03-16T15:04:37.186Z,27.19
2023-03-16T15:07:37.980Z,28.37
2023-03-16T15:10:26.863Z,29.37
2023-03-16T15:12:54.619Z,28.89
2023-03-16T15:15:24.092Z,28.55
2023-03-16T15:17:53.706Z,28.48
2023-03-16T15:20:39.521Z,29.59
2023-03-16T15:23:11.364Z,29.95
2023-03-16T15:25:43.069Z,28.44
2023-03-16T15:28:21.331Z,30.37
2023-03-16T15:30:54.801Z,30.09
2023-03-16T15:33:22.895Z,29.82
2023-03-16T15:36:02.863Z,28.79
2023-03-16T15:38:39.690Z,29.37
2023-03-16T15:41:11.755Z,27.83
2023-03-16T15:43:39.500Z,30.85
2023-03-16T15:46:06.877Z,30.26
2023-03-16T15:48:34.354Z,30.67
2023-03-16T15:51:28.166Z,28.88
2023-03-16T15:53:59.879Z,27.98
2023-03-16T15:56:36.605Z,29.36
2023-03-16T15:59:18.765Z,28.71
2023-03-16T16:01:48.439Z,31.71
2023-03-16T16:04:20.604Z,29.59
2023-03-16T16:06:49.425Z,33.81
2023-03-16T16:09:16.531Z,32.13
2023-03-16T16:11:44.160Z,31.19
2023-03-16T16:14:19.278Z,34.17
2023-03-16T16:16:46.606Z,31.97
2023-03-16T16:19:18.768Z,31.19
2023-03-16T16:21:47.431Z,31.06
2023-03-16T16:24:15.594Z,33.52
2023-03-16T16:26:59.043Z,32.90
2023-03-16T16:29:32.103Z,30.30
2023-03-16T16:32:00.025Z,30.56
2023-03-16T16:34:28.003Z,31.62
2023-03-16T16:36:57.138Z,32.49
2023-03-16T16:39:27.619Z,32.07
2023-03-16T16:41:56.406Z,32.83
2023-03-16T16:44:33.843Z,37.47
2023-03-16T16:47:04.739Z,34.20
2023-03-16T16:49:35.055Z,34.36
2023-03-16T16:52:02.481Z,36.56
2023-03-16T16:54:31.960Z,38.39
2023-03-16T16:57:01.593Z,38.20
2023-03-16T16:59:37.056Z,40.03
2023-03-16T17:02:28.239Z,40.85
2023-03-16T17:04:55.464Z,41.94
2023-03-16T17:07:22.917Z,43.27
2023-03-16T17:09:50.803Z,44.20
2023-03-16T17:12:22.815Z,45.20
2023-03-16T17:14:51.081Z,46.78
2023-03-16T17:17:18.982Z,46.86
2023-03-16T17:19:51.565Z,49.65
2023-03-16T17:22:28.175Z,47.48
2023-03-16T17:24:55.300Z,47.34
2023-03-16T17:27:31.587Z,47.16
2023-03-16T17:29:59.239Z,46.39
2023-03-16T17:32:26.469Z,47.05
2023-03-16T17:34:53.625Z,47.10
2023-03-16T17:37:23.174Z,46.28
2023-03-16T17:39:51.195Z,46.18
2023-03-16T17:42:20.373Z,46.82
2023-03-16T17:44:52.967Z,47.60
2023-03-16T17:47:31.145Z,46.63
2023-03-16T17:49:59.365Z,47.06
2023-03-16T17:52:29.716Z,45.27
2023-03-16T17:54:57.192Z,46.43
2023-03-16T17:57:34.083Z,46.77
2023-03-16T18:00:08.898Z,45.12
2023-03-16T18:02:40.083Z,46.61
2023-03-16T18:05:20.931Z,48.19
2023-03-16T18:07:49.041Z,47.80
2023-03-16T18:10:29.496Z,45.15
2023-03-16T18:13:26.843Z,46.32
2023-03-16T18:15:55.817Z,47.14
2023-03-16T18:18:27.636Z,43.96
2023-03-16T18:20:56.953Z,44.62
2023-03-16T18:23:29.729Z,43.47
2023-03-16T18:26:03.853Z,44.39
2023-03-16T18:28:33.245Z,43.59
2023-03-16T18:31:03.619Z,43.64
2023-03-16T18:33:39.133Z,44.35
2023-03-16T18:36:16.222Z,43.23
2023-03-16T18:38:48.423Z,42.57
2023-03-16T18:41:24.313Z,43.47
2023-03-16T18:43:56.467Z,42.00
2023-03-16T18:46:37.206Z,44.83
2023-03-16T18:49:32.964Z,45.43
2023-03-16T18:52:00.151Z,43.38
2023-03-16T18:54:36.736Z,44.95
2023-03-16T18:57:14.270Z,43.86
2023-03-16T18:59:41.341Z,44.05
2023-03-16T19:02:39.216Z,44.77
2023-03-16T19:05:23.365Z,43.24
2023-03-16T19:07:54.581Z,44.88
2023-03-16T19:10:26.271Z,45.42
2023-03-16T19:12:54.174Z,44.22
2023-03-16T19:15:29.248Z,44.77
2023-03-16T19:17:57.938Z,44.13
2023-03-16T19:20:32.503Z,45.45
2023-03-16T19:23:28.560Z,42.51
2023-03-16T19:25:57.804Z,44.31
2023-03-16T19:28:39.721Z,43.54
2023-03-16T19:31:27.552Z,45.19
2023-03-16T19:33:55.343Z,44.53
2023-03-16T19:36:31.191Z,45.19
2023-03-16T19:38:59.370Z,44.26
2023-03-16T19:41:37.479Z,44.84
2023-03-16T19:44:27.238Z,47.57
2023-03-16T19:46:55.208Z,45.00
2023-03-16T19:49:27.378Z,47.36
2023-03-16T19:51:56.237Z,46.79
2023-03-16T19:54:33.402Z,46.54
2023-03-16T19:57:12.276Z,47.70
2023-03-16T19:59:43.574Z,46.50
2023-03-16T20:02:38.197Z,49.68
2023-03-16T20:05:07.718Z,45.87
2023-03-16T20:07:37.989Z,47.94
2023-03-16T20:10:07.002Z,45.67
2023-03-16T20:12:36.884Z,47.29
2023-03-16T20:15:04.091Z,46.24
2023-03-16T20:17:33.818Z,47.15
2023-03-16T20:20:01.211Z,44.74
2023-03-16T20:22:29.042Z,44.97
2023-03-16T20:24:57.950Z,47.42
2023-03-16T20:27:27.662Z,45.79
2023-03-16T20:29:55.671Z,46.01
2023-03-16T20:32:34.964Z,44.40
2023-03-16T20:35:02.046Z,45.00
2023-03-16T20:37:31.161Z,44.04
2023-03-16T20:39:59.138Z,44.28
2023-03-16T20:42:35.038Z,42.62
2023-03-16T20:45:02.369Z,41.93
2023-03-16T20:47:29.479Z,42.65
2023-03-16T20:50:00.118Z,42.25
2023-03-16T20:52:30.804Z,45.50
2023-03-16T20:54:58.649Z,44.14
2023-03-16T20:57:29.568Z,42.61
2023-03-16T20:59:56.979Z,42.11
2023-03-16T21:02:35.139Z,42.17
2023-03-16T21:05:06.816Z,42.29
2023-03-16T21:07:35.016Z,41.89
2023-03-16T21:10:02.319Z,41.94
2023-03-16T21:12:38.019Z,43.57
2023-03-16T21:15:32.302Z,44.56
2023-03-16T21:18:07.853Z,45.39
2023-03-16T21:20:36.572Z,43.56
2023-03-16T21:23:04.031Z,44.26
2023-03-16T21:25:45.478Z,43.42
2023-03-16T21:28:13.364Z,43.58
2023-03-16T21:30:50.202Z,44.47
2023-03-16T21:33:19.582Z,45.62
2023-03-16T21:35:47.098Z,45.51
2023-03-16T21:38:19.487Z,47.65
2023-03-16T21:40:48.793Z,48.32
2023-03-16T21:43:16.626Z,47.30
2023-03-16T21:45:46.023Z,45.65
2023-03-16T21:48:24.780Z,46.05
2023-03-16T21:50:53.729Z,45.78
2023-03-16T21:53:34.388Z,46.95
2023-03-16T21:56:01.573Z,49.10
2023-03-16T21:58:28.606Z,49.34
2023-03-16T22:00:58.190Z,47.72
2023-03-16T22:03:50.623Z,49.73
2023-03-16T22:06:18.825Z,49.19
2023-03-16T22:08:51.076Z,49.79
2023-03-16T22:11:23.827Z,49.01
2023-03-16T22:13:55.087Z,49.09
2023-03-16T22:16:31.663Z,48.23
2023-03-16T22:18:59.030Z,48.38
2023-03-16T22:21:41.132Z,48.71
2023-03-16T22:24:28.152Z,48.11
2023-03-16T22:26:55.427Z,49.23
2023-03-16T22:29:35.706Z,49.82
2023-03-16T22:32:12.300Z,51.42
2023-03-16T22:34:51.174Z,48.40
2023-03-16T22:37:28.478Z,50.62
2023-03-16T22:39:58.300Z,49.22
2023-03-16T22:42:36.988Z,50.13
2023-03-16T22:45:22.104Z,50.20
2023-03-16T22:47:49.539Z,48.71
2023-03-16T22:50:19.552Z,51.14
2023-03-16T22:52:51.167Z,51.12
2023-03-16T22:55:32.322Z,51.13
2023-03-16T22:58:30.961Z,50.04
2023-03-16T23:01:00.439Z,51.17
2023-03-16T23:03:28.091Z,52.14
2023-03-16T23:05:55.693Z,49.72
2023-03-16T23:08:26.399Z,49.97
2023-03-16T23:10:53.613Z,49.14
2023-03-16T23:13:24.564Z,49.44
2023-03-16T23:15:53.448Z,51.49
2023-03-16T23:18:26.149Z,51.06
2023-03-16T23:20:53.861Z,50.84
2023-03-16T23:23:21.263Z,49.94
2023-03-16T23:25:48.694Z,50.68
2023-03-16T23:28:24.460Z,52.45
2023-03-16T23:30:51.643Z,52.99
2023-03-16T23:33:18.699Z,53.73
2023-03-16T23:35:46.713Z,52.81
2023-03-16T23:38:14.110Z,51.54
2023-03-16T23:40:41.463Z,52.14
2023-03-16T23:43:09.253Z,53.81
2023-03-16T23:45:42.354Z,55.46
2023-03-16T23:48:19.273Z,55.12
2023-03-16T23:50:52.025Z,54.48
2023-03-16T23:53:21.174Z,55.32
2023-03-16T23:55:48.559Z,55.64
2023-03-16T23:58:16.501Z,55.13
